sensor_id;sensor_type;location;lat;lon;timestamp;P1;durP1;ratioP1;P2;durP2;ratioP2
51036;SDS011;37064;59.346;18.058;2023-09-30T00:02:18;12.00;;;5.45;;
51036;SDS011;37064;59.346;18.058;2023-09-30T00:04:44;10.80;;;5.50;;
51036;SDS011;37064;59.346;18.058;2023-09-30T00:07:10;19.83;;;7.47;;
51036;SDS011;37064;59.346;18.058;2023-09-30T00:09:36;11.68;;;4.88;;
51036;SDS011;37064;59.346;18.058;2023-09-30T00:12:02;12.75;;;6.40;;
51036;SDS011;37064;59.346;18.058;2023-09-30T00:14:29;10.93;;;5.65;;
51036;SDS011;37064;59.346;18.058;2023-09-30T00:16:55;9.93;;;5.60;;
51036;SDS011;37064;59.346;18.058;2023-09-30T00:19:21;9.45;;;4.93;;
51036;SDS011;37064;59.346;18.058;2023-09-30T00:21:47;13.10;;;6.15;;
51036;SDS011;37064;59.346;18.058;2023-09-30T00:24:13;12.68;;;5.28;;
51036;SDS011;37064;59.346;18.058;2023-09-30T00:26:39;9.25;;;4.82;;
51036;SDS011;37064;59.346;18.058;2023-09-30T00:29:06;9.18;;;4.95;;
51036;SDS011;37064;59.346;18.058;2023-09-30T00:31:32;15.77;;;6.47;;
51036;SDS011;37064;59.346;18.058;2023-09-30T00:33:58;9.73;;;4.47;;
51036;SDS011;37064;59.346;18.058;2023-09-30T00:36:24;10.07;;;5.10;;
51036;SDS011;37064;59.346;18.058;2023-09-30T00:38:51;12.48;;;5.10;;
51036;SDS011;37064;59.346;18.058;2023-09-30T00:41:17;8.63;;;4.85;;
51036;SDS011;37064;59.346;18.058;2023-09-30T00:43:45;9.77;;;5.05;;
51036;SDS011;37064;59.346;18.058;2023-09-30T00:48:43;11.35;;;4.30;;
51036;SDS011;37064;59.346;18.058;2023-09-30T00:51:09;10.52;;;4.25;;
51036;SDS011;37064;59.346;18.058;2023-09-30T00:53:36;13.60;;;4.72;;
51036;SDS011;37064;59.346;18.058;2023-09-30T00:56:02;7.75;;;4.10;;
51036;SDS011;37064;59.346;18.058;2023-09-30T00:58:28;7.57;;;4.35;;
51036;SDS011;37064;59.346;18.058;2023-09-30T01:00:56;9.70;;;4.18;;
51036;SDS011;37064;59.346;18.058;2023-09-30T01:03:22;10.13;;;3.80;;
51036;SDS011;37064;59.346;18.058;2023-09-30T01:05:48;6.88;;;3.72;;
51036;SDS011;37064;59.346;18.058;2023-09-30T01:08:15;5.55;;;3.45;;
51036;SDS011;37064;59.346;18.058;2023-09-30T01:10:41;7.40;;;3.03;;
51036;SDS011;37064;59.346;18.058;2023-09-30T01:13:08;6.25;;;3.17;;
51036;SDS011;37064;59.346;18.058;2023-09-30T01:15:34;6.57;;;3.20;;
51036;SDS011;37064;59.346;18.058;2023-09-30T01:18:02;4.88;;;2.55;;
51036;SDS011;37064;59.346;18.058;2023-09-30T01:20:28;5.90;;;2.30;;
51036;SDS011;37064;59.346;18.058;2023-09-30T01:22:54;4.47;;;3.03;;
51036;SDS011;37064;59.346;18.058;2023-09-30T01:25:21;5.05;;;2.03;;
51036;SDS011;37064;59.346;18.058;2023-09-30T01:27:47;5.88;;;2.85;;
51036;SDS011;37064;59.346;18.058;2023-09-30T01:30:16;6.78;;;2.60;;
51036;SDS011;37064;59.346;18.058;2023-09-30T01:32:43;4.43;;;1.73;;
51036;SDS011;37064;59.346;18.058;2023-09-30T01:35:09;4.20;;;2.67;;
51036;SDS011;37064;59.346;18.058;2023-09-30T01:37:35;3.65;;;1.90;;
51036;SDS011;37064;59.346;18.058;2023-09-30T01:40:02;4.85;;;1.67;;
51036;SDS011;37064;59.346;18.058;2023-09-30T01:42:36;3.75;;;2.38;;
51036;SDS011;37064;59.346;18.058;2023-09-30T01:45:02;4.80;;;1.40;;
51036;SDS011;37064;59.346;18.058;2023-09-30T01:47:29;3.65;;;1.55;;
51036;SDS011;37064;59.346;18.058;2023-09-30T01:49:55;2.53;;;1.20;;
51036;SDS011;37064;59.346;18.058;2023-09-30T01:52:21;2.40;;;1.30;;
51036;SDS011;37064;59.346;18.058;2023-09-30T01:54:47;2.10;;;1.23;;
51036;SDS011;37064;59.346;18.058;2023-09-30T01:57:13;4.53;;;1.20;;
51036;SDS011;37064;59.346;18.058;2023-09-30T01:59:39;1.83;;;1.00;;
51036;SDS011;37064;59.346;18.058;2023-09-30T02:02:05;3.75;;;1.05;;
51036;SDS011;37064;59.346;18.058;2023-09-30T02:04:31;1.48;;;0.93;;
51036;SDS011;37064;59.346;18.058;2023-09-30T02:06:57;2.47;;;1.38;;
51036;SDS011;37064;59.346;18.058;2023-09-30T02:09:23;3.83;;;1.58;;
51036;SDS011;37064;59.346;18.058;2023-09-30T02:11:49;6.60;;;1.58;;
51036;SDS011;37064;59.346;18.058;2023-09-30T02:14:15;4.18;;;1.70;;
51036;SDS011;37064;59.346;18.058;2023-09-30T02:16:41;5.72;;;1.40;;
51036;SDS011;37064;59.346;18.058;2023-09-30T02:19:07;5.70;;;1.88;;
51036;SDS011;37064;59.346;18.058;2023-09-30T02:21:35;6.97;;;2.33;;
51036;SDS011;37064;59.346;18.058;2023-09-30T02:24:01;3.92;;;1.83;;
51036;SDS011;37064;59.346;18.058;2023-09-30T02:26:27;4.80;;;1.40;;
51036;SDS011;37064;59.346;18.058;2023-09-30T02:28:54;5.28;;;1.40;;
51036;SDS011;37064;59.346;18.058;2023-09-30T02:31:20;8.85;;;2.63;;
51036;SDS011;37064;59.346;18.058;2023-09-30T02:33:46;4.80;;;1.70;;
51036;SDS011;37064;59.346;18.058;2023-09-30T02:36:12;5.43;;;1.60;;
51036;SDS011;37064;59.346;18.058;2023-09-30T02:38:39;5.68;;;2.20;;
51036;SDS011;37064;59.346;18.058;2023-09-30T02:41:06;2.78;;;1.35;;
51036;SDS011;37064;59.346;18.058;2023-09-30T02:43:32;4.22;;;2.03;;
51036;SDS011;37064;59.346;18.058;2023-09-30T02:45:58;6.13;;;1.67;;
51036;SDS011;37064;59.346;18.058;2023-09-30T02:48:24;5.07;;;2.10;;
51036;SDS011;37064;59.346;18.058;2023-09-30T02:50:50;6.38;;;1.80;;
51036;SDS011;37064;59.346;18.058;2023-09-30T02:53:16;5.63;;;1.73;;
51036;SDS011;37064;59.346;18.058;2023-09-30T02:55:42;6.00;;;1.38;;
51036;SDS011;37064;59.346;18.058;2023-09-30T02:58:08;3.58;;;1.48;;
51036;SDS011;37064;59.346;18.058;2023-09-30T03:00:34;8.38;;;2.30;;
51036;SDS011;37064;59.346;18.058;2023-09-30T03:03:02;3.17;;;1.73;;
51036;SDS011;37064;59.346;18.058;2023-09-30T03:05:28;7.60;;;1.92;;
51036;SDS011;37064;59.346;18.058;2023-09-30T03:07:59;5.90;;;1.63;;
51036;SDS011;37064;59.346;18.058;2023-09-30T03:10:25;6.05;;;2.13;;
51036;SDS011;37064;59.346;18.058;2023-09-30T03:12:58;10.15;;;2.83;;
51036;SDS011;37064;59.346;18.058;2023-09-30T03:15:26;7.20;;;3.00;;
51036;SDS011;37064;59.346;18.058;2023-09-30T03:17:53;7.07;;;1.67;;
51036;SDS011;37064;59.346;18.058;2023-09-30T03:20:20;9.43;;;2.20;;
51036;SDS011;37064;59.346;18.058;2023-09-30T03:22:46;5.88;;;2.03;;
51036;SDS011;37064;59.346;18.058;2023-09-30T03:25:13;4.45;;;1.52;;
51036;SDS011;37064;59.346;18.058;2023-09-30T03:27:43;9.48;;;1.70;;
51036;SDS011;37064;59.346;18.058;2023-09-30T03:30:10;3.90;;;1.98;;
51036;SDS011;37064;59.346;18.058;2023-09-30T03:32:36;7.90;;;1.92;;
51036;SDS011;37064;59.346;18.058;2023-09-30T03:35:06;4.55;;;1.90;;
51036;SDS011;37064;59.346;18.058;2023-09-30T03:37:35;7.72;;;1.92;;
51036;SDS011;37064;59.346;18.058;2023-09-30T03:40:02;7.45;;;1.65;;
51036;SDS011;37064;59.346;18.058;2023-09-30T03:42:40;5.55;;;1.42;;
51036;SDS011;37064;59.346;18.058;2023-09-30T03:45:07;6.18;;;1.42;;
51036;SDS011;37064;59.346;18.058;2023-09-30T03:47:35;5.47;;;1.95;;
51036;SDS011;37064;59.346;18.058;2023-09-30T03:50:01;5.20;;;2.13;;
51036;SDS011;37064;59.346;18.058;2023-09-30T03:52:28;5.53;;;2.13;;
51036;SDS011;37064;59.346;18.058;2023-09-30T03:54:54;5.60;;;2.05;;
51036;SDS011;37064;59.346;18.058;2023-09-30T03:57:20;5.95;;;2.10;;
51036;SDS011;37064;59.346;18.058;2023-09-30T03:59:46;9.23;;;2.30;;
51036;SDS011;37064;59.346;18.058;2023-09-30T04:02:13;8.93;;;3.15;;
51036;SDS011;37064;59.346;18.058;2023-09-30T04:04:39;6.50;;;2.28;;
51036;SDS011;37064;59.346;18.058;2023-09-30T04:07:05;12.73;;;2.30;;
51036;SDS011;37064;59.346;18.058;2023-09-30T04:09:32;11.43;;;2.78;;
51036;SDS011;37064;59.346;18.058;2023-09-30T04:11:58;7.43;;;2.55;;
51036;SDS011;37064;59.346;18.058;2023-09-30T04:14:25;8.32;;;2.10;;
51036;SDS011;37064;59.346;18.058;2023-09-30T04:16:51;7.00;;;2.13;;
51036;SDS011;37064;59.346;18.058;2023-09-30T04:19:19;11.73;;;2.78;;
51036;SDS011;37064;59.346;18.058;2023-09-30T04:21:46;9.27;;;2.08;;
51036;SDS011;37064;59.346;18.058;2023-09-30T04:24:12;8.85;;;2.60;;
51036;SDS011;37064;59.346;18.058;2023-09-30T04:26:38;6.45;;;2.10;;
51036;SDS011;37064;59.346;18.058;2023-09-30T04:29:05;9.45;;;2.60;;
51036;SDS011;37064;59.346;18.058;2023-09-30T04:31:33;8.35;;;2.75;;
51036;SDS011;37064;59.346;18.058;2023-09-30T04:33:59;13.57;;;3.15;;
51036;SDS011;37064;59.346;18.058;2023-09-30T04:36:25;9.27;;;2.72;;
51036;SDS011;37064;59.346;18.058;2023-09-30T04:38:51;14.35;;;3.47;;
51036;SDS011;37064;59.346;18.058;2023-09-30T04:41:17;9.50;;;2.83;;
51036;SDS011;37064;59.346;18.058;2023-09-30T04:43:44;8.98;;;2.67;;
51036;SDS011;37064;59.346;18.058;2023-09-30T04:46:10;8.15;;;2.60;;
51036;SDS011;37064;59.346;18.058;2023-09-30T04:48:37;10.40;;;2.63;;
51036;SDS011;37064;59.346;18.058;2023-09-30T04:51:07;11.75;;;2.88;;
51036;SDS011;37064;59.346;18.058;2023-09-30T04:53:33;9.27;;;2.60;;
51036;SDS011;37064;59.346;18.058;2023-09-30T04:55:59;8.68;;;2.30;;
51036;SDS011;37064;59.346;18.058;2023-09-30T04:58:26;8.13;;;2.42;;
51036;SDS011;37064;59.346;18.058;2023-09-30T05:00:52;9.98;;;2.70;;
51036;SDS011;37064;59.346;18.058;2023-09-30T05:03:18;9.15;;;2.72;;
51036;SDS011;37064;59.346;18.058;2023-09-30T05:05:44;10.68;;;2.85;;
51036;SDS011;37064;59.346;18.058;2023-09-30T05:08:10;10.13;;;2.17;;
51036;SDS011;37064;59.346;18.058;2023-09-30T05:10:39;9.57;;;2.22;;
51036;SDS011;37064;59.346;18.058;2023-09-30T05:13:05;12.27;;;2.92;;
51036;SDS011;37064;59.346;18.058;2023-09-30T05:15:31;15.50;;;2.97;;
51036;SDS011;37064;59.346;18.058;2023-09-30T05:17:57;11.05;;;3.75;;
51036;SDS011;37064;59.346;18.058;2023-09-30T05:20:23;10.55;;;3.63;;
51036;SDS011;37064;59.346;18.058;2023-09-30T05:22:49;10.40;;;2.15;;
51036;SDS011;37064;59.346;18.058;2023-09-30T05:25:16;15.40;;;3.78;;
51036;SDS011;37064;59.346;18.058;2023-09-30T05:27:42;12.88;;;2.60;;
51036;SDS011;37064;59.346;18.058;2023-09-30T05:30:09;10.20;;;3.13;;
51036;SDS011;37064;59.346;18.058;2023-09-30T05:32:36;7.90;;;2.20;;
51036;SDS011;37064;59.346;18.058;2023-09-30T05:35:03;9.30;;;2.25;;
51036;SDS011;37064;59.346;18.058;2023-09-30T05:37:30;11.68;;;3.78;;
51036;SDS011;37064;59.346;18.058;2023-09-30T05:39:56;11.00;;;2.45;;
51036;SDS011;37064;59.346;18.058;2023-09-30T05:42:22;19.88;;;3.58;;
51036;SDS011;37064;59.346;18.058;2023-09-30T05:44:48;12.23;;;2.83;;
51036;SDS011;37064;59.346;18.058;2023-09-30T05:47:14;14.93;;;3.00;;
51036;SDS011;37064;59.346;18.058;2023-09-30T05:49:41;7.15;;;1.95;;
51036;SDS011;37064;59.346;18.058;2023-09-30T05:52:07;10.57;;;3.00;;
51036;SDS011;37064;59.346;18.058;2023-09-30T05:54:33;10.20;;;2.38;;
51036;SDS011;37064;59.346;18.058;2023-09-30T05:56:59;9.82;;;2.53;;
51036;SDS011;37064;59.346;18.058;2023-09-30T05:59:25;9.57;;;3.42;;
51036;SDS011;37064;59.346;18.058;2023-09-30T06:01:53;10.48;;;2.58;;
51036;SDS011;37064;59.346;18.058;2023-09-30T06:04:19;11.93;;;3.17;;
51036;SDS011;37064;59.346;18.058;2023-09-30T06:06:46;10.07;;;2.60;;
51036;SDS011;37064;59.346;18.058;2023-09-30T06:09:11;15.95;;;3.20;;
51036;SDS011;37064;59.346;18.058;2023-09-30T06:11:38;9.73;;;3.75;;
51036;SDS011;37064;59.346;18.058;2023-09-30T06:14:06;11.65;;;3.63;;
51036;SDS011;37064;59.346;18.058;2023-09-30T06:16:32;10.63;;;2.78;;
51036;SDS011;37064;59.346;18.058;2023-09-30T06:18:59;11.57;;;2.45;;
51036;SDS011;37064;59.346;18.058;2023-09-30T06:21:25;10.35;;;3.25;;
51036;SDS011;37064;59.346;18.058;2023-09-30T06:23:54;9.60;;;2.80;;
51036;SDS011;37064;59.346;18.058;2023-09-30T06:26:20;12.48;;;5.63;;
51036;SDS011;37064;59.346;18.058;2023-09-30T06:28:47;11.48;;;4.00;;
51036;SDS011;37064;59.346;18.058;2023-09-30T06:31:13;12.65;;;2.47;;
51036;SDS011;37064;59.346;18.058;2023-09-30T06:33:40;13.27;;;2.30;;
51036;SDS011;37064;59.346;18.058;2023-09-30T06:36:10;12.52;;;3.40;;
51036;SDS011;37064;59.346;18.058;2023-09-30T06:38:36;11.18;;;2.70;;
51036;SDS011;37064;59.346;18.058;2023-09-30T06:41:03;12.75;;;3.65;;
51036;SDS011;37064;59.346;18.058;2023-09-30T06:43:30;12.88;;;2.25;;
51036;SDS011;37064;59.346;18.058;2023-09-30T06:45:57;8.43;;;2.13;;
51036;SDS011;37064;59.346;18.058;2023-09-30T06:48:23;12.82;;;3.60;;
51036;SDS011;37064;59.346;18.058;2023-09-30T06:50:49;9.88;;;2.08;;
51036;SDS011;37064;59.346;18.058;2023-09-30T06:53:18;11.25;;;2.42;;
51036;SDS011;37064;59.346;18.058;2023-09-30T06:55:46;11.38;;;2.88;;
51036;SDS011;37064;59.346;18.058;2023-09-30T06:58:12;11.18;;;2.40;;
51036;SDS011;37064;59.346;18.058;2023-09-30T07:00:40;13.77;;;2.65;;
51036;SDS011;37064;59.346;18.058;2023-09-30T07:03:06;8.73;;;2.03;;
51036;SDS011;37064;59.346;18.058;2023-09-30T07:05:35;17.05;;;3.25;;
51036;SDS011;37064;59.346;18.058;2023-09-30T07:08:01;11.40;;;2.40;;
51036;SDS011;37064;59.346;18.058;2023-09-30T07:10:27;10.48;;;3.03;;
51036;SDS011;37064;59.346;18.058;2023-09-30T07:12:54;8.73;;;1.92;;
51036;SDS011;37064;59.346;18.058;2023-09-30T07:15:20;15.50;;;3.47;;
51036;SDS011;37064;59.346;18.058;2023-09-30T07:17:46;12.02;;;2.50;;
51036;SDS011;37064;59.346;18.058;2023-09-30T07:20:12;9.05;;;2.80;;
51036;SDS011;37064;59.346;18.058;2023-09-30T07:22:39;7.43;;;2.28;;
51036;SDS011;37064;59.346;18.058;2023-09-30T07:25:05;11.23;;;2.90;;
51036;SDS011;37064;59.346;18.058;2023-09-30T07:27:31;7.80;;;2.63;;
51036;SDS011;37064;59.346;18.058;2023-09-30T07:29:57;12.15;;;2.72;;
51036;SDS011;37064;59.346;18.058;2023-09-30T07:32:23;11.73;;;2.38;;
51036;SDS011;37064;59.346;18.058;2023-09-30T07:34:49;12.55;;;2.85;;
51036;SDS011;37064;59.346;18.058;2023-09-30T07:37:16;12.40;;;2.40;;
51036;SDS011;37064;59.346;18.058;2023-09-30T07:39:43;7.35;;;1.85;;
51036;SDS011;37064;59.346;18.058;2023-09-30T07:42:09;13.25;;;2.03;;
51036;SDS011;37064;59.346;18.058;2023-09-30T07:44:35;8.18;;;2.65;;
51036;SDS011;37064;59.346;18.058;2023-09-30T07:47:02;8.27;;;1.80;;
51036;SDS011;37064;59.346;18.058;2023-09-30T07:49:29;16.90;;;2.35;;
51036;SDS011;37064;59.346;18.058;2023-09-30T07:51:55;16.15;;;2.92;;
51036;SDS011;37064;59.346;18.058;2023-09-30T07:54:21;9.40;;;2.08;;
51036;SDS011;37064;59.346;18.058;2023-09-30T07:56:47;12.77;;;2.20;;
51036;SDS011;37064;59.346;18.058;2023-09-30T07:59:14;7.65;;;1.67;;
51036;SDS011;37064;59.346;18.058;2023-09-30T08:01:40;12.20;;;2.22;;
51036;SDS011;37064;59.346;18.058;2023-09-30T08:04:06;9.55;;;2.17;;
51036;SDS011;37064;59.346;18.058;2023-09-30T08:06:32;12.13;;;1.85;;
51036;SDS011;37064;59.346;18.058;2023-09-30T08:08:58;9.48;;;2.15;;
51036;SDS011;37064;59.346;18.058;2023-09-30T08:11:24;9.45;;;2.13;;
51036;SDS011;37064;59.346;18.058;2023-09-30T08:13:55;7.60;;;1.90;;
51036;SDS011;37064;59.346;18.058;2023-09-30T08:16:21;6.63;;;1.77;;
51036;SDS011;37064;59.346;18.058;2023-09-30T08:18:47;11.40;;;1.63;;
51036;SDS011;37064;59.346;18.058;2023-09-30T08:21:13;9.23;;;1.90;;
51036;SDS011;37064;59.346;18.058;2023-09-30T08:23:39;8.88;;;2.13;;
51036;SDS011;37064;59.346;18.058;2023-09-30T08:26:05;9.52;;;2.47;;
51036;SDS011;37064;59.346;18.058;2023-09-30T08:28:32;10.60;;;1.98;;
51036;SDS011;37064;59.346;18.058;2023-09-30T08:31:04;9.30;;;2.55;;
51036;SDS011;37064;59.346;18.058;2023-09-30T08:33:31;8.30;;;2.17;;
51036;SDS011;37064;59.346;18.058;2023-09-30T08:36:03;14.90;;;3.47;;
51036;SDS011;37064;59.346;18.058;2023-09-30T08:38:32;12.05;;;2.10;;
51036;SDS011;37064;59.346;18.058;2023-09-30T08:40:59;12.27;;;2.70;;
51036;SDS011;37064;59.346;18.058;2023-09-30T08:43:25;10.63;;;3.38;;
51036;SDS011;37064;59.346;18.058;2023-09-30T08:45:55;12.02;;;3.13;;
51036;SDS011;37064;59.346;18.058;2023-09-30T08:48:21;10.30;;;2.13;;
51036;SDS011;37064;59.346;18.058;2023-09-30T08:50:48;8.75;;;2.42;;
51036;SDS011;37064;59.346;18.058;2023-09-30T08:53:14;10.90;;;1.90;;
51036;SDS011;37064;59.346;18.058;2023-09-30T08:55:42;10.48;;;1.80;;
51036;SDS011;37064;59.346;18.058;2023-09-30T08:58:10;12.10;;;1.83;;
51036;SDS011;37064;59.346;18.058;2023-09-30T09:00:38;13.00;;;2.17;;
51036;SDS011;37064;59.346;18.058;2023-09-30T09:03:04;10.85;;;2.90;;
51036;SDS011;37064;59.346;18.058;2023-09-30T09:05:30;13.52;;;3.08;;
51036;SDS011;37064;59.346;18.058;2023-09-30T09:07:56;12.90;;;2.92;;
51036;SDS011;37064;59.346;18.058;2023-09-30T09:10:22;11.70;;;2.78;;
51036;SDS011;37064;59.346;18.058;2023-09-30T09:12:56;13.95;;;3.55;;
51036;SDS011;37064;59.346;18.058;2023-09-30T09:15:28;13.55;;;2.72;;
51036;SDS011;37064;59.346;18.058;2023-09-30T09:17:54;6.65;;;1.65;;
51036;SDS011;37064;59.346;18.058;2023-09-30T09:20:21;10.40;;;2.42;;
51036;SDS011;37064;59.346;18.058;2023-09-30T09:22:48;10.32;;;2.38;;
51036;SDS011;37064;59.346;18.058;2023-09-30T09:25:19;9.38;;;1.98;;
51036;SDS011;37064;59.346;18.058;2023-09-30T09:27:48;16.10;;;2.85;;
51036;SDS011;37064;59.346;18.058;2023-09-30T09:30:17;11.68;;;2.42;;
51036;SDS011;37064;59.346;18.058;2023-09-30T09:32:53;11.98;;;2.38;;
51036;SDS011;37064;59.346;18.058;2023-09-30T09:35:22;10.43;;;2.00;;
51036;SDS011;37064;59.346;18.058;2023-09-30T09:37:54;10.02;;;2.55;;
51036;SDS011;37064;59.346;18.058;2023-09-30T09:40:22;11.10;;;2.85;;
51036;SDS011;37064;59.346;18.058;2023-09-30T09:42:51;9.50;;;3.42;;
51036;SDS011;37064;59.346;18.058;2023-09-30T09:45:20;8.80;;;2.42;;
51036;SDS011;37064;59.346;18.058;2023-09-30T09:47:48;7.78;;;2.10;;
51036;SDS011;37064;59.346;18.058;2023-09-30T09:50:14;8.05;;;1.90;;
51036;SDS011;37064;59.346;18.058;2023-09-30T09:52:41;8.77;;;2.78;;
51036;SDS011;37064;59.346;18.058;2023-09-30T09:55:09;13.20;;;2.05;;
51036;SDS011;37064;59.346;18.058;2023-09-30T09:57:36;9.70;;;2.35;;
51036;SDS011;37064;59.346;18.058;2023-09-30T10:00:03;10.07;;;2.10;;
51036;SDS011;37064;59.346;18.058;2023-09-30T10:02:36;12.05;;;2.72;;
51036;SDS011;37064;59.346;18.058;2023-09-30T10:05:04;7.32;;;1.63;;
51036;SDS011;37064;59.346;18.058;2023-09-30T10:07:33;8.70;;;1.80;;
51036;SDS011;37064;59.346;18.058;2023-09-30T10:10:00;10.75;;;2.05;;
51036;SDS011;37064;59.346;18.058;2023-09-30T10:12:27;6.88;;;1.67;;
51036;SDS011;37064;59.346;18.058;2023-09-30T10:14:54;7.45;;;1.95;;
51036;SDS011;37064;59.346;18.058;2023-09-30T10:17:20;6.90;;;2.58;;
51036;SDS011;37064;59.346;18.058;2023-09-30T10:20:04;11.50;;;1.55;;
51036;SDS011;37064;59.346;18.058;2023-09-30T10:22:34;10.38;;;2.25;;
51036;SDS011;37064;59.346;18.058;2023-09-30T10:25:00;6.13;;;1.65;;
51036;SDS011;37064;59.346;18.058;2023-09-30T10:27:30;9.35;;;2.42;;
51036;SDS011;37064;59.346;18.058;2023-09-30T10:35:18;6.95;;;1.63;;
51036;SDS011;37064;59.346;18.058;2023-09-30T10:37:44;6.80;;;2.70;;
51036;SDS011;37064;59.346;18.058;2023-09-30T10:40:31;11.77;;;2.10;;
51036;SDS011;37064;59.346;18.058;2023-09-30T10:42:57;10.15;;;2.00;;
51036;SDS011;37064;59.346;18.058;2023-09-30T10:50:49;6.50;;;1.33;;
51036;SDS011;37064;59.346;18.058;2023-09-30T10:53:15;8.60;;;2.05;;
51036;SDS011;37064;59.346;18.058;2023-09-30T10:55:44;9.40;;;3.20;;
51036;SDS011;37064;59.346;18.058;2023-09-30T10:58:12;9.57;;;2.22;;
51036;SDS011;37064;59.346;18.058;2023-09-30T11:00:38;11.95;;;2.03;;
51036;SDS011;37064;59.346;18.058;2023-09-30T11:03:10;9.10;;;1.75;;
51036;SDS011;37064;59.346;18.058;2023-09-30T11:05:37;8.93;;;2.33;;
51036;SDS011;37064;59.346;18.058;2023-09-30T11:08:03;7.10;;;1.92;;
51036;SDS011;37064;59.346;18.058;2023-09-30T11:10:29;7.65;;;1.88;;
51036;SDS011;37064;59.346;18.058;2023-09-30T11:12:57;7.88;;;1.52;;
51036;SDS011;37064;59.346;18.058;2023-09-30T11:15:23;5.32;;;1.50;;
51036;SDS011;37064;59.346;18.058;2023-09-30T11:17:51;8.65;;;2.28;;
51036;SDS011;37064;59.346;18.058;2023-09-30T11:20:17;8.30;;;2.10;;
51036;SDS011;37064;59.346;18.058;2023-09-30T11:22:44;13.65;;;2.15;;
51036;SDS011;37064;59.346;18.058;2023-09-30T11:25:19;7.75;;;1.88;;
51036;SDS011;37064;59.346;18.058;2023-09-30T11:27:46;7.55;;;2.15;;
51036;SDS011;37064;59.346;18.058;2023-09-30T11:30:12;5.45;;;1.40;;
51036;SDS011;37064;59.346;18.058;2023-09-30T11:32:39;9.23;;;1.40;;
51036;SDS011;37064;59.346;18.058;2023-09-30T11:35:08;8.25;;;1.52;;
51036;SDS011;37064;59.346;18.058;2023-09-30T11:37:35;6.90;;;1.30;;
51036;SDS011;37064;59.346;18.058;2023-09-30T11:40:11;8.68;;;1.63;;
51036;SDS011;37064;59.346;18.058;2023-09-30T11:42:39;10.77;;;2.30;;
51036;SDS011;37064;59.346;18.058;2023-09-30T11:45:26;6.43;;;1.20;;
51036;SDS011;37064;59.346;18.058;2023-09-30T11:47:52;8.88;;;2.10;;
51036;SDS011;37064;59.346;18.058;2023-09-30T11:50:18;7.20;;;2.28;;
51036;SDS011;37064;59.346;18.058;2023-09-30T11:52:44;5.22;;;1.30;;
51036;SDS011;37064;59.346;18.058;2023-09-30T11:55:13;8.40;;;1.55;;
51036;SDS011;37064;59.346;18.058;2023-09-30T11:57:41;7.38;;;1.77;;
51036;SDS011;37064;59.346;18.058;2023-09-30T12:00:07;5.15;;;1.55;;
51036;SDS011;37064;59.346;18.058;2023-09-30T12:02:38;10.23;;;1.77;;
51036;SDS011;37064;59.346;18.058;2023-09-30T12:05:05;6.13;;;1.35;;
51036;SDS011;37064;59.346;18.058;2023-09-30T12:07:36;8.05;;;1.85;;
51036;SDS011;37064;59.346;18.058;2023-09-30T12:10:02;4.07;;;1.23;;
51036;SDS011;37064;59.346;18.058;2023-09-30T12:12:28;7.78;;;1.20;;
51036;SDS011;37064;59.346;18.058;2023-09-30T12:14:54;4.18;;;0.63;;
51036;SDS011;37064;59.346;18.058;2023-09-30T12:17:20;6.38;;;0.70;;
51036;SDS011;37064;59.346;18.058;2023-09-30T12:19:47;3.78;;;1.13;;
51036;SDS011;37064;59.346;18.058;2023-09-30T12:22:13;5.95;;;0.90;;
51036;SDS011;37064;59.346;18.058;2023-09-30T12:24:39;3.70;;;0.73;;
51036;SDS011;37064;59.346;18.058;2023-09-30T12:27:05;5.72;;;1.25;;
51036;SDS011;37064;59.346;18.058;2023-09-30T12:29:31;4.55;;;0.60;;
51036;SDS011;37064;59.346;18.058;2023-09-30T12:31:57;2.28;;;0.40;;
51036;SDS011;37064;59.346;18.058;2023-09-30T12:34:23;6.35;;;0.80;;
51036;SDS011;37064;59.346;18.058;2023-09-30T12:36:50;3.42;;;0.73;;
51036;SDS011;37064;59.346;18.058;2023-09-30T12:39:16;4.90;;;0.73;;
51036;SDS011;37064;59.346;18.058;2023-09-30T12:41:48;5.15;;;0.60;;
51036;SDS011;37064;59.346;18.058;2023-09-30T12:44:15;4.22;;;1.10;;
51036;SDS011;37064;59.346;18.058;2023-09-30T12:46:42;3.03;;;1.35;;
51036;SDS011;37064;59.346;18.058;2023-09-30T12:49:08;4.70;;;1.35;;
51036;SDS011;37064;59.346;18.058;2023-09-30T12:51:35;2.53;;;0.70;;
51036;SDS011;37064;59.346;18.058;2023-09-30T12:54:04;4.25;;;1.30;;
51036;SDS011;37064;59.346;18.058;2023-09-30T12:56:30;4.32;;;1.27;;
51036;SDS011;37064;59.346;18.058;2023-09-30T12:58:57;4.40;;;0.93;;
51036;SDS011;37064;59.346;18.058;2023-09-30T13:01:24;7.13;;;1.02;;
51036;SDS011;37064;59.346;18.058;2023-09-30T13:03:50;4.93;;;0.73;;
51036;SDS011;37064;59.346;18.058;2023-09-30T13:06:16;3.05;;;0.68;;
51036;SDS011;37064;59.346;18.058;2023-09-30T13:08:42;2.75;;;0.80;;
51036;SDS011;37064;59.346;18.058;2023-09-30T13:11:08;5.53;;;1.13;;
51036;SDS011;37064;59.346;18.058;2023-09-30T13:13:36;7.63;;;0.98;;
51036;SDS011;37064;59.346;18.058;2023-09-30T13:16:02;2.67;;;0.60;;
51036;SDS011;37064;59.346;18.058;2023-09-30T13:18:34;2.08;;;0.60;;
51036;SDS011;37064;59.346;18.058;2023-09-30T13:21:01;3.72;;;0.63;;
51036;SDS011;37064;59.346;18.058;2023-09-30T13:23:27;4.43;;;0.95;;
51036;SDS011;37064;59.346;18.058;2023-09-30T13:25:53;1.90;;;0.43;;
51036;SDS011;37064;59.346;18.058;2023-09-30T13:28:19;7.55;;;0.50;;
51036;SDS011;37064;59.346;18.058;2023-09-30T13:30:45;5.65;;;1.02;;
51036;SDS011;37064;59.346;18.058;2023-09-30T13:33:11;2.75;;;0.75;;
51036;SDS011;37064;59.346;18.058;2023-09-30T13:35:37;3.88;;;0.75;;
51036;SDS011;37064;59.346;18.058;2023-09-30T13:38:03;4.95;;;1.25;;
51036;SDS011;37064;59.346;18.058;2023-09-30T13:40:29;5.47;;;1.13;;
51036;SDS011;37064;59.346;18.058;2023-09-30T13:42:55;1.48;;;0.50;;
51036;SDS011;37064;59.346;18.058;2023-09-30T13:45:23;2.97;;;0.95;;
51036;SDS011;37064;59.346;18.058;2023-09-30T13:47:50;1.65;;;0.60;;
51036;SDS011;37064;59.346;18.058;2023-09-30T13:50:16;3.40;;;0.30;;
51036;SDS011;37064;59.346;18.058;2023-09-30T13:52:42;7.70;;;1.17;;
51036;SDS011;37064;59.346;18.058;2023-09-30T13:55:08;6.03;;;1.13;;
51036;SDS011;37064;59.346;18.058;2023-09-30T13:57:34;2.88;;;0.55;;
51036;SDS011;37064;59.346;18.058;2023-09-30T14:00:00;9.32;;;1.00;;
51036;SDS011;37064;59.346;18.058;2023-09-30T14:02:28;5.80;;;1.58;;
51036;SDS011;37064;59.346;18.058;2023-09-30T14:04:54;3.67;;;0.77;;
51036;SDS011;37064;59.346;18.058;2023-09-30T14:07:20;2.67;;;0.60;;
51036;SDS011;37064;59.346;18.058;2023-09-30T14:09:46;4.63;;;0.90;;
51036;SDS011;37064;59.346;18.058;2023-09-30T14:12:12;2.72;;;0.45;;
51036;SDS011;37064;59.346;18.058;2023-09-30T14:14:38;6.85;;;0.88;;
51036;SDS011;37064;59.346;18.058;2023-09-30T14:17:05;3.83;;;0.68;;
51036;SDS011;37064;59.346;18.058;2023-09-30T14:19:35;3.22;;;1.00;;
51036;SDS011;37064;59.346;18.058;2023-09-30T14:22:02;3.00;;;0.90;;
51036;SDS011;37064;59.346;18.058;2023-09-30T14:24:30;2.88;;;0.90;;
51036;SDS011;37064;59.346;18.058;2023-09-30T14:26:56;2.65;;;0.80;;
51036;SDS011;37064;59.346;18.058;2023-09-30T14:29:22;3.55;;;0.85;;
51036;SDS011;37064;59.346;18.058;2023-09-30T14:31:48;6.30;;;0.90;;
51036;SDS011;37064;59.346;18.058;2023-09-30T14:34:13;2.13;;;0.73;;
51036;SDS011;37064;59.346;18.058;2023-09-30T14:36:40;6.60;;;1.67;;
51036;SDS011;37064;59.346;18.058;2023-09-30T14:39:06;1.77;;;0.73;;
51036;SDS011;37064;59.346;18.058;2023-09-30T14:41:32;5.05;;;1.25;;
51036;SDS011;37064;59.346;18.058;2023-09-30T14:43:59;4.40;;;1.52;;